WLF505 KDEN-KLAS
Flight info
| Callsign | WLF505 |
|---|---|
| Flight time | 1h 21m |
| Altitude | 38000 |
| Route | CONNR8 WERNR ZAKRY CHESZ GGAPP CHOWW4 |
| Aircraft | B738/M-SDE2E3FGHIRWXY/LB1 |
Departure
| Time | 2026-05-06 23:00 |
|---|---|
| Airport | Denver International Airport (KDEN) |
Arrival
| Time | 2026-05-07 00:21 |
|---|---|
| Airport | Harry Reid International Airport (KLAS) |
| Time | Latitude | Longitude | Altitude | Speed | Heading |
|---|---|---|---|---|---|
| 2026-05-06 22:31 | 39.85946 | -104.68018 | 5379 ft | 0 kts | 180° |
| 2026-05-06 22:50 | 39.85971 | -104.68015 | 5375 ft | 4 kts | 192° |
| 2026-05-06 22:50 | 39.85997 | -104.68007 | 5375 ft | 4 kts | 191° |
| 2026-05-06 22:50 | 39.86011 | -104.68004 | 5375 ft | 0 kts | 180° |
| 2026-05-06 22:53 | 39.86006 | -104.68005 | 5375 ft | 2 kts | 188° |
| 2026-05-06 22:53 | 39.85992 | -104.68024 | 5379 ft | 5 kts | 250° |
| 2026-05-06 22:54 | 39.86009 | -104.68097 | 5375 ft | 10 kts | 292° |
| 2026-05-06 22:54 | 39.86020 | -104.68189 | 5378 ft | 10 kts | 277° |
| 2026-05-06 22:54 | 39.86029 | -104.68292 | 5372 ft | 12 kts | 270° |
| 2026-05-06 22:54 | 39.85998 | -104.68390 | 5371 ft | 13 kts | 200° |
| 2026-05-06 22:55 | 39.85912 | -104.68395 | 5369 ft | 12 kts | 180° |
| 2026-05-06 22:55 | 39.85827 | -104.68396 | 5369 ft | 12 kts | 182° |
| 2026-05-06 22:55 | 39.85735 | -104.68399 | 5369 ft | 14 kts | 180° |
| 2026-05-06 22:55 | 39.85639 | -104.68399 | 5371 ft | 13 kts | 180° |
| 2026-05-06 22:56 | 39.85548 | -104.68399 | 5375 ft | 13 kts | 180° |
| 2026-05-06 22:56 | 39.85459 | -104.68397 | 5376 ft | 13 kts | 180° |
| 2026-05-06 22:56 | 39.85356 | -104.68399 | 5377 ft | 17 kts | 181° |
| 2026-05-06 22:56 | 39.85237 | -104.68410 | 5377 ft | 17 kts | 202° |
| 2026-05-06 22:57 | 39.85205 | -104.68545 | 5374 ft | 17 kts | 269° |
| 2026-05-06 22:57 | 39.85203 | -104.68711 | 5368 ft | 20 kts | 269° |
| 2026-05-06 22:57 | 39.85201 | -104.68904 | 5358 ft | 20 kts | 269° |
| 2026-05-06 22:57 | 39.85197 | -104.69049 | 5351 ft | 17 kts | 268° |
| 2026-05-06 22:58 | 39.85198 | -104.69214 | 5346 ft | 20 kts | 270° |
| 2026-05-06 22:58 | 39.85200 | -104.69403 | 5340 ft | 22 kts | 271° |
| 2026-05-06 22:58 | 39.85201 | -104.69582 | 5339 ft | 18 kts | 271° |
| 2026-05-06 22:58 | 39.85290 | -104.69658 | 5336 ft | 18 kts | 1° |
| 2026-05-06 22:59 | 39.85583 | -104.69654 | 5340 ft | 75 kts | 0° |
| 2026-05-06 22:59 | 39.86320 | -104.69647 | 5334 ft | 135 kts | 1° |
| 2026-05-06 22:59 | 39.87436 | -104.69633 | 5390 ft | 180 kts | 1° |
| 2026-05-06 22:59 | 39.88734 | -104.69577 | 6002 ft | 186 kts | 1° |
| 2026-05-06 23:00 | 39.89997 | -104.69673 | 6971 ft | 180 kts | 340° |
| 2026-05-06 23:00 | 39.91045 | -104.70628 | 7404 ft | 196 kts | 303° |
| 2026-05-06 23:00 | 39.91442 | -104.72378 | 7584 ft | 215 kts | 266° |
| 2026-05-06 23:00 | 39.91125 | -104.74393 | 7777 ft | 239 kts | 255° |
| 2026-05-06 23:01 | 39.90626 | -104.76550 | 7948 ft | 260 kts | 252° |
| 2026-05-06 23:01 | 39.90054 | -104.78869 | 8373 ft | 274 kts | 252° |
| 2026-05-06 23:01 | 39.89469 | -104.81217 | 9153 ft | 276 kts | 253° |
| 2026-05-06 23:01 | 39.88885 | -104.83607 | 9942 ft | 279 kts | 253° |
| 2026-05-06 23:02 | 39.88303 | -104.86024 | 10443 ft | 293 kts | 253° |
| 2026-05-06 23:02 | 39.87670 | -104.88647 | 10707 ft | 311 kts | 254° |
| 2026-05-06 23:02 | 39.87029 | -104.91372 | 11381 ft | 317 kts | 255° |
| 2026-05-06 23:02 | 39.86383 | -104.94092 | 12196 ft | 317 kts | 255° |
| 2026-05-06 23:03 | 39.85728 | -104.96819 | 13053 ft | 319 kts | 255° |
| 2026-05-06 23:03 | 39.85069 | -104.99572 | 13910 ft | 319 kts | 256° |
| 2026-05-06 23:03 | 39.84403 | -105.02354 | 14611 ft | 323 kts | 256° |
| 2026-05-06 23:03 | 39.83725 | -105.05186 | 15251 ft | 330 kts | 256° |
| 2026-05-06 23:04 | 39.83048 | -105.08013 | 15905 ft | 335 kts | 256° |
| 2026-05-06 23:04 | 39.82347 | -105.10936 | 16594 ft | 340 kts | 256° |
| 2026-05-06 23:04 | 39.81636 | -105.13900 | 17266 ft | 346 kts | 256° |
| 2026-05-06 23:04 | 39.80913 | -105.16908 | 17932 ft | 351 kts | 257° |
| 2026-05-06 23:05 | 39.80180 | -105.19957 | 18573 ft | 357 kts | 257° |
| 2026-05-06 23:05 | 39.79434 | -105.23058 | 19108 ft | 363 kts | 257° |
| 2026-05-06 23:05 | 39.78672 | -105.26223 | 19623 ft | 370 kts | 257° |
| 2026-05-06 23:05 | 39.77894 | -105.29447 | 20114 ft | 376 kts | 258° |
| 2026-05-06 23:06 | 39.77103 | -105.32724 | 20555 ft | 385 kts | 258° |
| 2026-05-06 23:06 | 39.76293 | -105.36073 | 21028 ft | 391 kts | 258° |
| 2026-05-06 23:06 | 39.75470 | -105.39465 | 21539 ft | 396 kts | 258° |
| 2026-05-06 23:06 | 39.74633 | -105.42908 | 22057 ft | 402 kts | 258° |
| 2026-05-06 23:07 | 39.73785 | -105.46398 | 22556 ft | 409 kts | 258° |
| 2026-05-06 23:07 | 39.72919 | -105.49953 | 23056 ft | 416 kts | 259° |
| 2026-05-06 23:07 | 39.72039 | -105.53559 | 23503 ft | 421 kts | 259° |
| 2026-05-06 23:07 | 39.71146 | -105.57215 | 23924 ft | 427 kts | 259° |
| 2026-05-06 23:08 | 39.70243 | -105.60903 | 24430 ft | 430 kts | 259° |
| 2026-05-06 23:08 | 39.69334 | -105.64612 | 24859 ft | 431 kts | 259° |
| 2026-05-06 23:08 | 39.68482 | -105.68347 | 25328 ft | 430 kts | 264° |
| 2026-05-06 23:08 | 39.67873 | -105.72147 | 25747 ft | 431 kts | 268° |
| 2026-05-06 23:09 | 39.67384 | -105.75992 | 26129 ft | 433 kts | 269° |
| 2026-05-06 23:09 | 39.66923 | -105.79870 | 26576 ft | 435 kts | 269° |
| 2026-05-06 23:09 | 39.66453 | -105.83757 | 27003 ft | 439 kts | 269° |
| 2026-05-06 23:09 | 39.65954 | -105.87684 | 27437 ft | 442 kts | 269° |
| 2026-05-06 23:10 | 39.65445 | -105.91623 | 27859 ft | 445 kts | 268° |
| 2026-05-06 23:10 | 39.64912 | -105.95591 | 28281 ft | 446 kts | 268° |
| 2026-05-06 23:10 | 39.64363 | -105.99568 | 28663 ft | 449 kts | 268° |
| 2026-05-06 23:10 | 39.63816 | -106.03511 | 29051 ft | 451 kts | 268° |
| 2026-05-06 23:11 | 39.63263 | -106.07520 | 29468 ft | 453 kts | 268° |
| 2026-05-06 23:11 | 39.62692 | -106.11556 | 29873 ft | 455 kts | 268° |
| 2026-05-06 23:11 | 39.62120 | -106.15600 | 30276 ft | 458 kts | 268° |
| 2026-05-06 23:11 | 39.61544 | -106.19687 | 30578 ft | 460 kts | 268° |
| 2026-05-06 23:12 | 39.60969 | -106.23784 | 30862 ft | 462 kts | 268° |
| 2026-05-06 23:12 | 39.60393 | -106.27899 | 31139 ft | 465 kts | 268° |
| 2026-05-06 23:12 | 39.59812 | -106.32027 | 31482 ft | 466 kts | 268° |
| 2026-05-06 23:12 | 39.59223 | -106.36176 | 31767 ft | 466 kts | 268° |
| 2026-05-06 23:13 | 39.58636 | -106.40305 | 32057 ft | 466 kts | 268° |
| 2026-05-06 23:13 | 39.58055 | -106.44443 | 32293 ft | 466 kts | 268° |
| 2026-05-06 23:13 | 39.57465 | -106.48586 | 32574 ft | 468 kts | 268° |
| 2026-05-06 23:13 | 39.56867 | -106.52734 | 32969 ft | 466 kts | 267° |
| 2026-05-06 23:14 | 39.56273 | -106.56856 | 33403 ft | 464 kts | 267° |
| 2026-05-06 23:14 | 39.55683 | -106.60956 | 33823 ft | 463 kts | 267° |
| 2026-05-06 23:14 | 39.55292 | -106.63675 | 34057 ft | 462 kts | 268° |
| 2026-05-06 23:14 | 39.54611 | -106.67766 | 34345 ft | 468 kts | 261° |
| 2026-05-06 23:15 | 39.53501 | -106.71753 | 34661 ft | 471 kts | 255° |
| 2026-05-06 23:15 | 39.52257 | -106.75645 | 35230 ft | 464 kts | 253° |
| 2026-05-06 23:15 | 39.50594 | -106.80722 | 35697 ft | 461 kts | 253° |
| 2026-05-06 23:15 | 39.49355 | -106.84543 | 35919 ft | 461 kts | 253° |
| 2026-05-06 23:16 | 39.48529 | -106.87123 | 36080 ft | 461 kts | 254° |
| 2026-05-06 23:16 | 39.47306 | -106.90972 | 36451 ft | 459 kts | 253° |
| 2026-05-06 23:16 | 39.46103 | -106.94780 | 36852 ft | 455 kts | 253° |
| 2026-05-06 23:16 | 39.44912 | -106.98557 | 37227 ft | 452 kts | 253° |
| 2026-05-06 23:17 | 39.43725 | -107.02318 | 37549 ft | 450 kts | 253° |
| 2026-05-06 23:17 | 39.42545 | -107.06054 | 37764 ft | 449 kts | 253° |
| 2026-05-06 23:17 | 39.41363 | -107.09802 | 37855 ft | 452 kts | 253° |
| 2026-05-06 23:17 | 39.40175 | -107.13556 | 38045 ft | 450 kts | 253° |
| 2026-05-06 23:18 | 39.38983 | -107.17303 | 38037 ft | 451 kts | 253° |
| 2026-05-06 23:18 | 39.36488 | -107.24760 | 38039 ft | 453 kts | 250° |
| 2026-05-06 23:19 | 39.33744 | -107.32096 | 38021 ft | 452 kts | 249° |
| 2026-05-06 23:19 | 39.30991 | -107.39379 | 38041 ft | 451 kts | 249° |
| 2026-05-06 23:20 | 39.28256 | -107.46654 | 38027 ft | 451 kts | 249° |
| 2026-05-06 23:20 | 39.25556 | -107.53891 | 38049 ft | 451 kts | 250° |
| 2026-05-06 23:21 | 39.22812 | -107.61197 | 38074 ft | 452 kts | 250° |
| 2026-05-06 23:21 | 39.20075 | -107.68520 | 38075 ft | 454 kts | 250° |
| 2026-05-06 23:22 | 39.17314 | -107.75861 | 38049 ft | 456 kts | 250° |
| 2026-05-06 23:22 | 39.14547 | -107.83213 | 38067 ft | 457 kts | 250° |
| 2026-05-06 23:23 | 39.11755 | -107.90608 | 38071 ft | 459 kts | 250° |
| 2026-05-06 23:23 | 39.08967 | -107.97959 | 38079 ft | 461 kts | 250° |
| 2026-05-06 23:24 | 39.06143 | -108.05373 | 38094 ft | 462 kts | 249° |
| 2026-05-06 23:24 | 39.03322 | -108.12804 | 38080 ft | 461 kts | 249° |
| 2026-05-06 23:25 | 39.00489 | -108.20198 | 38077 ft | 459 kts | 249° |
| 2026-05-06 23:25 | 38.97686 | -108.27545 | 38092 ft | 458 kts | 249° |
| 2026-05-06 23:26 | 38.94875 | -108.34890 | 38105 ft | 457 kts | 249° |
| 2026-05-06 23:26 | 38.92060 | -108.42206 | 38103 ft | 457 kts | 249° |
| 2026-05-06 23:27 | 38.89238 | -108.49523 | 38103 ft | 457 kts | 249° |
| 2026-05-06 23:27 | 38.86426 | -108.56816 | 38104 ft | 455 kts | 249° |
| 2026-05-06 23:28 | 38.83612 | -108.64077 | 38083 ft | 454 kts | 248° |
| 2026-05-06 23:28 | 38.80758 | -108.71323 | 38098 ft | 456 kts | 249° |
| 2026-05-06 23:29 | 38.77944 | -108.78629 | 38072 ft | 458 kts | 249° |
| 2026-05-06 23:29 | 38.75103 | -108.85963 | 38088 ft | 462 kts | 249° |
| 2026-05-06 23:30 | 38.72246 | -108.93329 | 38085 ft | 467 kts | 249° |
| 2026-05-06 23:30 | 38.69330 | -109.00755 | 38104 ft | 467 kts | 249° |
| 2026-05-06 23:31 | 38.66398 | -109.08185 | 38077 ft | 466 kts | 248° |
| 2026-05-06 23:31 | 38.63481 | -109.15597 | 38077 ft | 465 kts | 248° |
| 2026-05-06 23:32 | 38.60577 | -109.22957 | 38098 ft | 463 kts | 248° |
| 2026-05-06 23:32 | 38.57672 | -109.30294 | 38099 ft | 461 kts | 248° |
| 2026-05-06 23:33 | 38.54777 | -109.37590 | 38084 ft | 459 kts | 249° |
| 2026-05-06 23:33 | 38.51893 | -109.44846 | 38084 ft | 458 kts | 248° |
| 2026-05-06 23:34 | 38.49013 | -109.52076 | 38075 ft | 456 kts | 248° |
| 2026-05-06 23:34 | 38.46138 | -109.59291 | 38072 ft | 456 kts | 249° |
| 2026-05-06 23:35 | 38.43261 | -109.66476 | 38069 ft | 457 kts | 248° |
| 2026-05-06 23:35 | 38.40354 | -109.73716 | 38070 ft | 461 kts | 248° |
| 2026-05-06 23:36 | 38.37419 | -109.81023 | 38027 ft | 464 kts | 248° |
| 2026-05-06 23:36 | 38.34469 | -109.88368 | 38046 ft | 467 kts | 248° |
| 2026-05-06 23:37 | 38.31476 | -109.95762 | 38055 ft | 470 kts | 248° |
| 2026-05-06 23:37 | 38.28466 | -110.03190 | 38053 ft | 472 kts | 248° |
| 2026-05-06 23:38 | 38.25721 | -110.10718 | 38031 ft | 466 kts | 252° |
| 2026-05-06 23:38 | 38.23158 | -110.18271 | 38042 ft | 465 kts | 252° |
| 2026-05-06 23:39 | 38.20612 | -110.25771 | 37997 ft | 464 kts | 251° |
| 2026-05-06 23:39 | 38.18003 | -110.33268 | 38026 ft | 462 kts | 251° |
| 2026-05-06 23:40 | 38.15405 | -110.40712 | 38014 ft | 461 kts | 251° |
| 2026-05-06 23:40 | 38.12812 | -110.48144 | 37983 ft | 460 kts | 251° |
| 2026-05-06 23:41 | 38.10219 | -110.55556 | 38003 ft | 459 kts | 251° |
| 2026-05-06 23:41 | 38.07610 | -110.62968 | 38014 ft | 460 kts | 251° |
| 2026-05-06 23:42 | 38.05001 | -110.70379 | 38005 ft | 461 kts | 251° |
| 2026-05-06 23:42 | 38.02378 | -110.77800 | 37983 ft | 461 kts | 251° |
| 2026-05-06 23:43 | 37.99742 | -110.85246 | 37977 ft | 463 kts | 251° |
| 2026-05-06 23:43 | 37.97121 | -110.92632 | 37979 ft | 465 kts | 251° |
| 2026-05-06 23:44 | 37.94461 | -111.00120 | 37986 ft | 466 kts | 251° |
| 2026-05-06 23:44 | 37.91789 | -111.07611 | 37973 ft | 467 kts | 251° |
| 2026-05-06 23:45 | 37.89105 | -111.15113 | 37941 ft | 467 kts | 251° |
| 2026-05-06 23:45 | 37.86421 | -111.22597 | 37957 ft | 467 kts | 251° |
| 2026-05-06 23:46 | 37.83735 | -111.30069 | 37956 ft | 466 kts | 251° |
| 2026-05-06 23:46 | 37.81065 | -111.37478 | 37951 ft | 465 kts | 250° |
| 2026-05-06 23:47 | 37.78379 | -111.44922 | 37968 ft | 464 kts | 250° |
| 2026-05-06 23:47 | 37.75691 | -111.52345 | 37971 ft | 464 kts | 250° |
| 2026-05-06 23:48 | 37.72999 | -111.59761 | 37976 ft | 465 kts | 250° |
| 2026-05-06 23:48 | 37.70299 | -111.67180 | 37970 ft | 466 kts | 250° |
| 2026-05-06 23:49 | 37.67584 | -111.74626 | 38009 ft | 467 kts | 250° |
| 2026-05-06 23:49 | 37.64860 | -111.82076 | 38043 ft | 468 kts | 250° |
| 2026-05-06 23:50 | 37.62125 | -111.89536 | 38086 ft | 468 kts | 250° |
| 2026-05-06 23:50 | 37.58036 | -112.00661 | 38142 ft | 468 kts | 250° |
| 2026-05-06 23:51 | 37.55296 | -112.08101 | 38163 ft | 468 kts | 250° |
| 2026-05-06 23:51 | 37.52465 | -112.15505 | 38116 ft | 470 kts | 245° |
| 2026-05-06 23:52 | 37.48921 | -112.22462 | 38097 ft | 472 kts | 239° |
| 2026-05-06 23:52 | 37.45202 | -112.29282 | 38044 ft | 472 kts | 240° |
| 2026-05-06 23:53 | 37.41557 | -112.36156 | 38014 ft | 470 kts | 241° |
| 2026-05-06 23:53 | 37.37958 | -112.43073 | 37421 ft | 475 kts | 241° |
| 2026-05-06 23:54 | 37.36186 | -112.46482 | 37073 ft | 468 kts | 241° |
| 2026-05-06 23:54 | 37.34412 | -112.49892 | 36663 ft | 464 kts | 241° |
| 2026-05-06 23:54 | 37.32655 | -112.53261 | 36299 ft | 460 kts | 241° |
| 2026-05-06 23:54 | 37.30907 | -112.56609 | 35908 ft | 456 kts | 241° |
| 2026-05-06 23:55 | 37.29171 | -112.59931 | 35552 ft | 452 kts | 241° |
| 2026-05-06 23:55 | 37.27452 | -112.63216 | 35176 ft | 450 kts | 241° |
| 2026-05-06 23:55 | 37.25733 | -112.66501 | 34758 ft | 448 kts | 241° |
| 2026-05-06 23:55 | 37.24027 | -112.69755 | 34381 ft | 445 kts | 241° |
| 2026-05-06 23:56 | 37.22328 | -112.72990 | 33995 ft | 443 kts | 241° |
| 2026-05-06 23:56 | 37.20624 | -112.76230 | 33541 ft | 442 kts | 241° |
| 2026-05-06 23:56 | 37.18938 | -112.79431 | 33153 ft | 439 kts | 240° |
| 2026-05-06 23:56 | 37.17259 | -112.82616 | 32789 ft | 436 kts | 240° |
| 2026-05-06 23:57 | 37.15592 | -112.85775 | 32462 ft | 432 kts | 240° |
| 2026-05-06 23:57 | 37.13935 | -112.88914 | 32076 ft | 430 kts | 240° |
| 2026-05-06 23:57 | 37.12291 | -112.92028 | 31740 ft | 427 kts | 240° |
| 2026-05-06 23:57 | 37.10653 | -112.95127 | 31391 ft | 425 kts | 240° |
| 2026-05-06 23:58 | 37.09029 | -112.98198 | 31041 ft | 423 kts | 240° |
| 2026-05-06 23:58 | 37.07412 | -113.01252 | 30707 ft | 421 kts | 240° |
| 2026-05-06 23:58 | 37.05795 | -113.04304 | 30356 ft | 419 kts | 240° |
| 2026-05-06 23:58 | 37.04183 | -113.07342 | 29955 ft | 417 kts | 240° |
| 2026-05-06 23:59 | 37.02581 | -113.10360 | 29552 ft | 414 kts | 240° |
| 2026-05-06 23:59 | 37.00995 | -113.13345 | 29157 ft | 410 kts | 240° |
| 2026-05-06 23:59 | 36.99418 | -113.16309 | 28768 ft | 407 kts | 240° |
| 2026-05-06 23:59 | 36.97855 | -113.19246 | 28379 ft | 404 kts | 240° |
| 2026-05-07 00:00 | 36.96300 | -113.22162 | 27994 ft | 401 kts | 240° |
| 2026-05-07 00:00 | 36.94756 | -113.25058 | 27612 ft | 398 kts | 240° |
| 2026-05-07 00:00 | 36.93225 | -113.27929 | 27240 ft | 395 kts | 239° |
| 2026-05-07 00:00 | 36.92217 | -113.29817 | 26989 ft | 394 kts | 239° |
| 2026-05-07 00:01 | 36.90191 | -113.33607 | 26504 ft | 390 kts | 239° |
| 2026-05-07 00:01 | 36.88686 | -113.36418 | 26106 ft | 388 kts | 239° |
| 2026-05-07 00:01 | 36.87190 | -113.39216 | 25735 ft | 386 kts | 239° |
| 2026-05-07 00:01 | 36.85700 | -113.42000 | 25369 ft | 385 kts | 239° |
| 2026-05-07 00:02 | 36.84239 | -113.44726 | 25032 ft | 383 kts | 239° |
| 2026-05-07 00:02 | 36.82758 | -113.47484 | 24685 ft | 381 kts | 239° |
| 2026-05-07 00:02 | 36.81281 | -113.50234 | 24317 ft | 380 kts | 239° |
| 2026-05-07 00:02 | 36.79818 | -113.52959 | 24091 ft | 374 kts | 239° |
| 2026-05-07 00:03 | 36.78398 | -113.55602 | 23766 ft | 372 kts | 239° |
| 2026-05-07 00:03 | 36.76959 | -113.58284 | 23434 ft | 371 kts | 239° |
| 2026-05-07 00:03 | 36.75530 | -113.60947 | 23027 ft | 369 kts | 239° |
| 2026-05-07 00:03 | 36.74105 | -113.63600 | 22649 ft | 367 kts | 239° |
| 2026-05-07 00:04 | 36.73168 | -113.65342 | 22416 ft | 366 kts | 239° |
| 2026-05-07 00:04 | 36.71756 | -113.67967 | 22052 ft | 364 kts | 239° |
| 2026-05-07 00:04 | 36.70353 | -113.70572 | 21699 ft | 361 kts | 239° |
| 2026-05-07 00:04 | 36.68953 | -113.73172 | 21354 ft | 360 kts | 239° |
| 2026-05-07 00:05 | 36.67561 | -113.75755 | 20989 ft | 358 kts | 239° |
| 2026-05-07 00:05 | 36.66181 | -113.78313 | 20648 ft | 355 kts | 238° |
| 2026-05-07 00:05 | 36.64807 | -113.80859 | 20322 ft | 353 kts | 238° |
| 2026-05-07 00:05 | 36.63439 | -113.83390 | 19980 ft | 351 kts | 238° |
| 2026-05-07 00:06 | 36.62077 | -113.85911 | 19655 ft | 350 kts | 238° |
| 2026-05-07 00:06 | 36.60726 | -113.88410 | 19313 ft | 348 kts | 238° |
| 2026-05-07 00:06 | 36.59371 | -113.90911 | 18958 ft | 348 kts | 238° |
| 2026-05-07 00:06 | 36.57990 | -113.93371 | 18652 ft | 347 kts | 236° |
| 2026-05-07 00:07 | 36.56527 | -113.95760 | 18336 ft | 346 kts | 234° |
| 2026-05-07 00:07 | 36.55040 | -113.98119 | 17969 ft | 345 kts | 234° |
| 2026-05-07 00:07 | 36.53563 | -114.00459 | 17621 ft | 344 kts | 234° |
| 2026-05-07 00:07 | 36.52098 | -114.02790 | 17255 ft | 342 kts | 234° |
| 2026-05-07 00:08 | 36.50659 | -114.05091 | 16911 ft | 340 kts | 234° |
| 2026-05-07 00:08 | 36.49210 | -114.07415 | 16561 ft | 339 kts | 234° |
| 2026-05-07 00:08 | 36.47770 | -114.09728 | 16249 ft | 337 kts | 234° |
| 2026-05-07 00:08 | 36.46344 | -114.12019 | 15923 ft | 335 kts | 234° |
| 2026-05-07 00:09 | 36.44927 | -114.14296 | 15593 ft | 333 kts | 234° |
| 2026-05-07 00:09 | 36.43512 | -114.16569 | 15266 ft | 331 kts | 234° |
| 2026-05-07 00:09 | 36.42105 | -114.18830 | 14952 ft | 330 kts | 234° |
| 2026-05-07 00:09 | 36.40703 | -114.21077 | 14623 ft | 329 kts | 234° |
| 2026-05-07 00:10 | 36.39300 | -114.23323 | 14302 ft | 328 kts | 234° |
| 2026-05-07 00:10 | 36.37888 | -114.25553 | 13987 ft | 327 kts | 234° |
| 2026-05-07 00:10 | 36.36475 | -114.27762 | 13646 ft | 327 kts | 233° |
| 2026-05-07 00:10 | 36.35059 | -114.29964 | 13291 ft | 326 kts | 234° |
| 2026-05-07 00:11 | 36.33665 | -114.32154 | 12945 ft | 326 kts | 234° |
| 2026-05-07 00:11 | 36.32249 | -114.34378 | 12612 ft | 324 kts | 234° |
| 2026-05-07 00:11 | 36.30858 | -114.36560 | 12292 ft | 322 kts | 233° |
| 2026-05-07 00:11 | 36.29471 | -114.38733 | 11953 ft | 321 kts | 233° |
| 2026-05-07 00:12 | 36.28109 | -114.40865 | 11633 ft | 319 kts | 233° |
| 2026-05-07 00:12 | 36.26730 | -114.43019 | 11331 ft | 318 kts | 234° |
| 2026-05-07 00:12 | 36.25365 | -114.45151 | 11004 ft | 316 kts | 234° |
| 2026-05-07 00:12 | 36.23993 | -114.47267 | 10689 ft | 315 kts | 233° |
| 2026-05-07 00:13 | 36.22616 | -114.49374 | 10385 ft | 313 kts | 233° |
| 2026-05-07 00:13 | 36.21248 | -114.51467 | 10083 ft | 311 kts | 234° |
| 2026-05-07 00:13 | 36.19899 | -114.53531 | 9915 ft | 304 kts | 234° |
| 2026-05-07 00:13 | 36.18570 | -114.55565 | 9605 ft | 304 kts | 234° |
| 2026-05-07 00:14 | 36.17245 | -114.57596 | 9313 ft | 301 kts | 234° |
| 2026-05-07 00:14 | 36.15928 | -114.59607 | 9023 ft | 299 kts | 233° |
| 2026-05-07 00:14 | 36.14628 | -114.61594 | 8816 ft | 295 kts | 233° |
| 2026-05-07 00:14 | 36.13353 | -114.63542 | 8647 ft | 289 kts | 233° |
| 2026-05-07 00:15 | 36.12087 | -114.65480 | 8523 ft | 290 kts | 233° |
| 2026-05-07 00:15 | 36.10816 | -114.67422 | 8368 ft | 291 kts | 233° |
| 2026-05-07 00:15 | 36.09538 | -114.69366 | 8204 ft | 292 kts | 233° |
| 2026-05-07 00:15 | 36.08264 | -114.71314 | 8067 ft | 293 kts | 235° |
| 2026-05-07 00:16 | 36.07393 | -114.73539 | 7814 ft | 290 kts | 262° |
| 2026-05-07 00:16 | 36.07269 | -114.75996 | 7516 ft | 287 kts | 273° |
| 2026-05-07 00:16 | 36.07299 | -114.78467 | 7183 ft | 287 kts | 273° |
| 2026-05-07 00:16 | 36.07324 | -114.80929 | 6849 ft | 286 kts | 272° |
| 2026-05-07 00:17 | 36.07341 | -114.83394 | 6525 ft | 287 kts | 272° |
| 2026-05-07 00:17 | 36.07354 | -114.85866 | 6138 ft | 288 kts | 271° |
| 2026-05-07 00:17 | 36.07359 | -114.88317 | 5758 ft | 282 kts | 271° |
| 2026-05-07 00:17 | 36.07360 | -114.90711 | 5403 ft | 275 kts | 271° |
| 2026-05-07 00:18 | 36.07362 | -114.93044 | 5064 ft | 269 kts | 271° |
| 2026-05-07 00:18 | 36.07389 | -114.95308 | 4744 ft | 256 kts | 271° |
| 2026-05-07 00:18 | 36.07396 | -114.97496 | 4416 ft | 245 kts | 270° |
| 2026-05-07 00:18 | 36.07388 | -114.99561 | 4104 ft | 235 kts | 270° |
| 2026-05-07 00:19 | 36.07383 | -115.01536 | 3812 ft | 224 kts | 271° |
| 2026-05-07 00:19 | 36.07379 | -115.03393 | 3537 ft | 208 kts | 270° |
| 2026-05-07 00:19 | 36.07376 | -115.05124 | 3298 ft | 195 kts | 270° |
| 2026-05-07 00:19 | 36.07373 | -115.06739 | 3082 ft | 179 kts | 270° |
| 2026-05-07 00:20 | 36.07371 | -115.08224 | 2803 ft | 169 kts | 269° |
| 2026-05-07 00:20 | 36.07376 | -115.09638 | 2568 ft | 162 kts | 269° |
| 2026-05-07 00:20 | 36.07365 | -115.11009 | 2352 ft | 156 kts | 268° |
| 2026-05-07 00:20 | 36.07362 | -115.12341 | 2159 ft | 155 kts | 270° |
| 2026-05-07 00:21 | 36.07368 | -115.13652 | 2074 ft | 144 kts | 269° |
| 2026-05-07 00:21 | 36.07363 | -115.14686 | 2091 ft | 100 kts | 270° |
| 2026-05-07 00:21 | 36.07381 | -115.15323 | 2104 ft | 36 kts | 293° |
| 2026-05-07 00:21 | 36.07469 | -115.15513 | 2105 ft | 16 kts | 300° |
| 2026-05-07 00:22 | 36.07522 | -115.15606 | 2108 ft | 5 kts | 317° |
| 2026-05-07 00:22 | 36.07541 | -115.15628 | 2111 ft | 0 kts | 317° |
| 2026-05-07 00:23 | 36.07554 | -115.15644 | 2112 ft | 5 kts | 317° |
| 2026-05-07 00:23 | 36.07591 | -115.15687 | 2117 ft | 9 kts | 316° |
| 2026-05-07 00:23 | 36.07655 | -115.15766 | 2120 ft | 15 kts | 316° |
| 2026-05-07 00:23 | 36.07745 | -115.15828 | 2115 ft | 14 kts | 353° |
| 2026-05-07 00:24 | 36.07808 | -115.15752 | 2108 ft | 16 kts | 88° |
| 2026-05-07 00:24 | 36.07804 | -115.15612 | 2104 ft | 17 kts | 90° |
| 2026-05-07 00:24 | 36.07806 | -115.15467 | 2102 ft | 17 kts | 90° |
| 2026-05-07 00:24 | 36.07807 | -115.15327 | 2101 ft | 16 kts | 89° |
| 2026-05-07 00:25 | 36.07803 | -115.15191 | 2100 ft | 15 kts | 95° |
| 2026-05-07 00:25 | 36.07803 | -115.15061 | 2099 ft | 15 kts | 91° |
| 2026-05-07 00:25 | 36.07797 | -115.14937 | 2099 ft | 14 kts | 93° |
| 2026-05-07 00:25 | 36.07787 | -115.14818 | 2098 ft | 14 kts | 97° |
| 2026-05-07 00:26 | 36.07778 | -115.14702 | 2097 ft | 15 kts | 95° |
| 2026-05-07 00:26 | 36.07769 | -115.14565 | 2096 ft | 16 kts | 94° |
| 2026-05-07 00:26 | 36.07762 | -115.14432 | 2096 ft | 15 kts | 94° |
| 2026-05-07 00:26 | 36.07754 | -115.14300 | 2095 ft | 15 kts | 94° |
| 2026-05-07 00:27 | 36.07757 | -115.14191 | 2094 ft | 11 kts | 72° |
| 2026-05-07 00:27 | 36.07816 | -115.14136 | 2093 ft | 11 kts | 47° |
| 2026-05-07 00:27 | 36.07829 | -115.14046 | 2093 ft | 11 kts | 86° |
| 2026-05-07 00:27 | 36.07877 | -115.13961 | 2092 ft | 13 kts | 44° |
| 2026-05-07 00:28 | 36.07943 | -115.13886 | 2092 ft | 13 kts | 31° |
| 2026-05-07 00:28 | 36.07996 | -115.13904 | 2092 ft | 5 kts | 315° |
| 2026-05-07 00:28 | 36.08017 | -115.13931 | 2092 ft | 2 kts | 314° |
| 2026-05-07 00:28 | 36.08021 | -115.13935 | 2092 ft | 0 kts | 314° |